sensor_id;sensor_type;location;lat;lon;timestamp;pressure;altitude;pressure_sealevel;temperature;humidity
21086;BME280;34247;50.064;19.970;2022-09-09T00:02:23;98876.13;;;20.77;100.00
21086;BME280;34247;50.064;19.970;2022-09-09T00:03:59;98881.38;;;20.79;100.00
21086;BME280;34247;50.064;19.970;2022-09-09T00:05:37;98884.91;;;20.79;100.00
21086;BME280;34247;50.064;19.970;2022-09-09T00:08:26;98892.16;;;20.79;100.00
21086;BME280;34247;50.064;19.970;2022-09-09T00:09:48;98891.28;;;20.78;100.00
21086;BME280;34247;50.064;19.970;2022-09-09T00:11:01;98895.00;;;20.77;100.00
21086;BME280;34247;50.064;19.970;2022-09-09T00:12:35;98889.63;;;20.77;100.00
21086;BME280;34247;50.064;19.970;2022-09-09T00:13:52;98889.78;;;20.76;100.00
21086;BME280;34247;50.064;19.970;2022-09-09T00:15:11;98886.44;;;20.74;100.00
21086;BME280;34247;50.064;19.970;2022-09-09T00:16:29;98885.81;;;20.72;100.00
21086;BME280;34247;50.064;19.970;2022-09-09T00:19:31;98889.50;;;20.71;100.00
21086;BME280;34247;50.064;19.970;2022-09-09T00:22:22;98887.63;;;20.71;100.00
21086;BME280;34247;50.064;19.970;2022-09-09T00:23:38;98878.06;;;20.69;100.00
21086;BME280;34247;50.064;19.970;2022-09-09T00:24:46;98881.78;;;20.68;100.00
21086;BME280;34247;50.064;19.970;2022-09-09T00:27:44;98871.69;;;20.61;100.00
21086;BME280;34247;50.064;19.970;2022-09-09T00:29:05;98888.84;;;20.69;100.00
21086;BME280;34247;50.064;19.970;2022-09-09T00:30:23;98882.78;;;20.67;100.00
21086;BME280;34247;50.064;19.970;2022-09-09T00:31:29;98886.31;;;20.67;100.00
21086;BME280;34247;50.064;19.970;2022-09-09T00:32:34;98891.22;;;20.63;100.00
21086;BME280;34247;50.064;19.970;2022-09-09T00:33:40;98893.75;;;20.65;100.00
21086;BME280;34247;50.064;19.970;2022-09-09T00:35:02;98886.84;;;20.62;100.00
21086;BME280;34247;50.064;19.970;2022-09-09T00:36:15;98879.59;;;20.63;100.00
21086;BME280;34247;50.064;19.970;2022-09-09T00:37:22;98880.44;;;20.63;100.00
21086;BME280;34247;50.064;19.970;2022-09-09T00:38:35;98874.56;;;20.60;100.00
21086;BME280;34247;50.064;19.970;2022-09-09T00:39:46;98887.88;;;20.61;100.00
21086;BME280;34247;50.064;19.970;2022-09-09T00:41:25;98890.75;;;20.60;100.00
21086;BME280;34247;50.064;19.970;2022-09-09T00:42:42;98877.16;;;20.53;100.00
21086;BME280;34247;50.064;19.970;2022-09-09T00:44:34;98896.97;;;20.60;100.00
21086;BME280;34247;50.064;19.970;2022-09-09T00:46:58;98887.22;;;20.59;100.00
21086;BME280;34247;50.064;19.970;2022-09-09T00:47:45;98900.50;;;20.61;100.00
21086;BME280;34247;50.064;19.970;2022-09-09T00:54:16;98901.72;;;20.58;100.00
21086;BME280;34247;50.064;19.970;2022-09-09T00:56:41;98901.41;;;20.53;100.00
21086;BME280;34247;50.064;19.970;2022-09-09T00:57:52;98906.44;;;20.56;100.00
21086;BME280;34247;50.064;19.970;2022-09-09T00:59:24;98909.97;;;20.57;100.00
21086;BME280;34247;50.064;19.970;2022-09-09T01:00:43;98908.13;;;20.57;100.00
21086;BME280;34247;50.064;19.970;2022-09-09T01:01:48;98907.25;;;20.57;100.00
21086;BME280;34247;50.064;19.970;2022-09-09T01:03:21;98914.53;;;20.56;100.00
21086;BME280;34247;50.064;19.970;2022-09-09T01:04:35;98901.41;;;20.53;100.00
21086;BME280;34247;50.064;19.970;2022-09-09T01:07:17;98909.97;;;20.57;100.00
21086;BME280;34247;50.064;19.970;2022-09-09T01:10:00;98910.84;;;20.57;100.00
21086;BME280;34247;50.064;19.970;2022-09-09T01:11:20;98911.81;;;20.56;100.00
21086;BME280;34247;50.064;19.970;2022-09-09T01:12:37;98914.53;;;20.56;100.00
21086;BME280;34247;50.064;19.970;2022-09-09T01:13:45;98919.75;;;20.58;100.00
21086;BME280;34247;50.064;19.970;2022-09-09T01:15:28;98907.25;;;20.57;100.00
21086;BME280;34247;50.064;19.970;2022-09-09T01:16:33;98915.19;;;20.58;100.00
21086;BME280;34247;50.064;19.970;2022-09-09T01:18:04;98926.81;;;20.59;100.00
21086;BME280;34247;50.064;19.970;2022-09-09T01:19:19;98918.75;;;20.59;100.00
21086;BME280;34247;50.064;19.970;2022-09-09T01:20:49;98922.59;;;20.56;100.00
21086;BME280;34247;50.064;19.970;2022-09-09T01:22:34;98916.09;;;20.51;100.00
21086;BME280;34247;50.064;19.970;2022-09-09T01:26:32;98926.31;;;20.55;100.00
21086;BME280;34247;50.064;19.970;2022-09-09T01:27:38;98922.78;;;20.55;100.00
21086;BME280;34247;50.064;19.970;2022-09-09T01:28:47;98921.31;;;20.52;100.00
21086;BME280;34247;50.064;19.970;2022-09-09T01:29:51;98918.09;;;20.49;100.00
21086;BME280;34247;50.064;19.970;2022-09-09T01:30:58;98927.72;;;20.51;100.00
21086;BME280;34247;50.064;19.970;2022-09-09T01:32:47;98934.13;;;20.50;100.00
21086;BME280;34247;50.064;19.970;2022-09-09T01:33:51;98925.53;;;20.47;100.00
21086;BME280;34247;50.064;19.970;2022-09-09T01:34:57;98938.19;;;20.46;100.00
21086;BME280;34247;50.064;19.970;2022-09-09T01:36:16;98928.91;;;20.41;100.00
21086;BME280;34247;50.064;19.970;2022-09-09T01:37:23;98930.56;;;20.42;100.00
21086;BME280;34247;50.064;19.970;2022-09-09T01:38:28;98928.91;;;20.41;100.00
21086;BME280;34247;50.064;19.970;2022-09-09T01:39:35;98940.50;;;20.41;100.00
21086;BME280;34247;50.064;19.970;2022-09-09T01:40:39;98945.06;;;20.41;100.00
21086;BME280;34247;50.064;19.970;2022-09-09T01:41:43;98942.56;;;20.39;100.00
21086;BME280;34247;50.064;19.970;2022-09-09T01:42:49;98936.84;;;20.34;100.00
21086;BME280;34247;50.064;19.970;2022-09-09T01:43:55;98933.03;;;20.28;100.00
21086;BME280;34247;50.064;19.970;2022-09-09T01:44:58;98938.22;;;20.30;100.00
21086;BME280;34247;50.064;19.970;2022-09-09T01:46:02;98947.47;;;20.35;100.00
21086;BME280;34247;50.064;19.970;2022-09-09T01:47:06;98946.59;;;20.35;100.00
21086;BME280;34247;50.064;19.970;2022-09-09T01:48:10;98940.91;;;20.30;100.00
21086;BME280;34247;50.064;19.970;2022-09-09T01:49:14;98950.31;;;20.34;100.00
21086;BME280;34247;50.064;19.970;2022-09-09T01:50:18;98947.63;;;20.34;100.00
21086;BME280;34247;50.064;19.970;2022-09-09T01:51:23;98930.19;;;20.22;100.00
21086;BME280;34247;50.064;19.970;2022-09-09T01:52:27;98942.78;;;20.29;100.00
21086;BME280;34247;50.064;19.970;2022-09-09T01:53:31;98936.03;;;20.25;100.00
21086;BME280;34247;50.064;19.970;2022-09-09T01:54:36;98952.72;;;20.29;100.00
21086;BME280;34247;50.064;19.970;2022-09-09T02:03:53;98949.38;;;20.19;100.00
21086;BME280;34247;50.064;19.970;2022-09-09T02:06:40;98937.97;;;20.08;100.00
21086;BME280;34247;50.064;19.970;2022-09-09T02:09:47;98952.75;;;20.13;100.00
21086;BME280;34247;50.064;19.970;2022-09-09T02:11:19;98954.31;;;20.07;100.00
21086;BME280;34247;50.064;19.970;2022-09-09T02:12:26;98952.78;;;20.04;100.00
21086;BME280;34247;50.064;19.970;2022-09-09T02:13:35;98955.47;;;20.04;100.00
21086;BME280;34247;50.064;19.970;2022-09-09T02:14:55;98957.53;;;20.02;100.00
21086;BME280;34247;50.064;19.970;2022-09-09T02:16:42;98969.97;;;20.03;100.00
21086;BME280;34247;50.064;19.970;2022-09-09T02:17:58;98964.44;;;19.97;100.00
21086;BME280;34247;50.064;19.970;2022-09-09T02:19:12;98958.56;;;19.93;100.00
21086;BME280;34247;50.064;19.970;2022-09-09T02:20:20;98962.41;;;19.91;100.00
21086;BME280;34247;50.064;19.970;2022-09-09T02:21:30;98964.59;;;19.95;100.00
21086;BME280;34247;50.064;19.970;2022-09-09T02:22:37;98964.28;;;19.90;100.00
21086;BME280;34247;50.064;19.970;2022-09-09T02:23:44;98979.75;;;19.96;100.00
21086;BME280;34247;50.064;19.970;2022-09-09T02:24:58;98973.88;;;19.93;100.00
21086;BME280;34247;50.064;19.970;2022-09-09T02:26:04;98973.72;;;19.94;100.00
21086;BME280;34247;50.064;19.970;2022-09-09T02:27:20;98973.88;;;19.93;100.00
21086;BME280;34247;50.064;19.970;2022-09-09T02:28:32;98975.75;;;19.92;100.00
21086;BME280;34247;50.064;19.970;2022-09-09T02:29:43;98976.06;;;19.89;100.00
21086;BME280;34247;50.064;19.970;2022-09-09T02:30:57;98982.47;;;19.88;100.00
21086;BME280;34247;50.064;19.970;2022-09-09T02:32:06;98978.94;;;19.88;100.00
21086;BME280;34247;50.064;19.970;2022-09-09T02:33:13;98986.19;;;19.87;100.00
21086;BME280;34247;50.064;19.970;2022-09-09T02:34:23;98976.25;;;19.79;100.00
21086;BME280;34247;50.064;19.970;2022-09-09T02:35:30;98991.75;;;19.86;100.00
21086;BME280;34247;50.064;19.970;2022-09-09T02:36:36;98993.59;;;19.85;100.00
21086;BME280;34247;50.064;19.970;2022-09-09T02:37:45;98986.03;;;19.80;100.00
21086;BME280;34247;50.064;19.970;2022-09-09T02:38:54;98993.91;;;19.82;100.00
21086;BME280;34247;50.064;19.970;2022-09-09T02:39:59;98971.56;;;19.73;100.00
21086;BME280;34247;50.064;19.970;2022-09-09T02:41:03;98986.53;;;19.76;100.00
21086;BME280;34247;50.064;19.970;2022-09-09T02:42:07;98990.88;;;19.77;100.00
21086;BME280;34247;50.064;19.970;2022-09-09T02:43:15;98989.22;;;19.76;100.00
21086;BME280;34247;50.064;19.970;2022-09-09T02:44:20;98993.28;;;19.72;100.00
21086;BME280;34247;50.064;19.970;2022-09-09T02:45:31;98984.19;;;19.65;100.00
21086;BME280;34247;50.064;19.970;2022-09-09T02:47:35;98989.75;;;19.71;100.00
21086;BME280;34247;50.064;19.970;2022-09-09T02:49:09;99001.66;;;19.69;100.00
21086;BME280;34247;50.064;19.970;2022-09-09T02:50:39;98982.50;;;19.64;100.00
21086;BME280;34247;50.064;19.970;2022-09-09T02:52:04;99006.41;;;19.67;100.00
21086;BME280;34247;50.064;19.970;2022-09-09T02:53:58;99000.53;;;19.63;100.00
21086;BME280;34247;50.064;19.970;2022-09-09T02:55:18;98983.81;;;19.51;100.00
21086;BME280;34247;50.064;19.970;2022-09-09T02:56:52;98996.47;;;19.59;100.00
21086;BME280;34247;50.064;19.970;2022-09-09T02:58:01;99004.72;;;19.58;100.00
21086;BME280;34247;50.064;19.970;2022-09-09T02:59:11;99005.69;;;19.56;100.00
21086;BME280;34247;50.064;19.970;2022-09-09T03:00:15;99003.69;;;19.50;100.00
21086;BME280;34247;50.064;19.970;2022-09-09T03:01:19;99004.69;;;19.49;100.00
21086;BME280;34247;50.064;19.970;2022-09-09T03:02:22;99003.03;;;19.48;100.00
21086;BME280;34247;50.064;19.970;2022-09-09T03:03:28;99008.41;;;19.48;100.00
21086;BME280;34247;50.064;19.970;2022-09-09T03:05:17;99012.78;;;19.49;100.00
21086;BME280;34247;50.064;19.970;2022-09-09T03:06:45;99010.22;;;19.48;100.00
21086;BME280;34247;50.064;19.970;2022-09-09T03:07:59;98994.91;;;19.40;100.00
21086;BME280;34247;50.064;19.970;2022-09-09T03:09:02;99017.31;;;19.49;100.00
21086;BME280;34247;50.064;19.970;2022-09-09T03:10:07;99014.75;;;19.47;100.00
21086;BME280;34247;50.064;19.970;2022-09-09T03:11:20;99016.78;;;19.45;100.00
21086;BME280;34247;50.064;19.970;2022-09-09T03:12:24;99006.69;;;19.39;100.00
21086;BME280;34247;50.064;19.970;2022-09-09T03:13:28;99017.81;;;19.44;100.00
21086;BME280;34247;50.064;19.970;2022-09-09T03:14:56;99019.66;;;19.44;100.00
21086;BME280;34247;50.064;19.970;2022-09-09T03:15:59;99021.50;;;19.43;100.00
21086;BME280;34247;50.064;19.970;2022-09-09T03:17:04;99021.69;;;19.42;100.00
21086;BME280;34247;50.064;19.970;2022-09-09T03:18:08;99016.97;;;19.44;100.00
21086;BME280;34247;50.064;19.970;2022-09-09T03:19:12;99021.69;;;19.42;100.00
21086;BME280;34247;50.064;19.970;2022-09-09T03:20:15;99021.69;;;19.42;100.00
21086;BME280;34247;50.064;19.970;2022-09-09T03:21:28;99019.00;;;19.42;100.00
21086;BME280;34247;50.064;19.970;2022-09-09T03:22:32;99011.06;;;19.40;100.00
21086;BME280;34247;50.064;19.970;2022-09-09T03:23:36;99021.16;;;19.38;100.00
21086;BME280;34247;50.064;19.970;2022-09-09T03:24:45;99007.88;;;19.37;100.00
21086;BME280;34247;50.064;19.970;2022-09-09T03:25:50;99008.53;;;19.39;100.00
21086;BME280;34247;50.064;19.970;2022-09-09T03:26:55;99011.25;;;19.39;100.00
21086;BME280;34247;50.064;19.970;2022-09-09T03:27:59;99003.69;;;19.34;100.00
21086;BME280;34247;50.064;19.970;2022-09-09T03:29:04;99010.56;;;19.37;100.00
21086;BME280;34247;50.064;19.970;2022-09-09T03:30:10;98996.94;;;19.30;100.00
21086;BME280;34247;50.064;19.970;2022-09-09T03:31:14;99011.75;;;19.34;100.00
21086;BME280;34247;50.064;19.970;2022-09-09T03:32:18;99005.00;;;19.30;100.00
21086;BME280;34247;50.064;19.970;2022-09-09T03:33:23;99010.56;;;19.28;100.00
21086;BME280;34247;50.064;19.970;2022-09-09T03:34:29;99018.47;;;19.30;100.00
21086;BME280;34247;50.064;19.970;2022-09-09T03:35:33;99018.13;;;19.33;100.00
21086;BME280;34247;50.064;19.970;2022-09-09T03:36:36;99000.97;;;19.26;100.00
21086;BME280;34247;50.064;19.970;2022-09-09T03:37:40;99019.97;;;19.33;100.00
21086;BME280;34247;50.064;19.970;2022-09-09T03:38:45;99020.66;;;19.35;100.00
21086;BME280;34247;50.064;19.970;2022-09-09T03:39:48;99012.25;;;19.29;100.00
21086;BME280;34247;50.064;19.970;2022-09-09T03:40:55;99014.94;;;19.29;100.00
21086;BME280;34247;50.064;19.970;2022-09-09T03:41:59;99021.16;;;19.30;100.00
21086;BME280;34247;50.064;19.970;2022-09-09T03:43:02;99016.44;;;19.32;100.00
21086;BME280;34247;50.064;19.970;2022-09-09T03:44:06;99025.22;;;19.34;100.00
21086;BME280;34247;50.064;19.970;2022-09-09T03:45:12;99022.84;;;19.31;100.00
21086;BME280;34247;50.064;19.970;2022-09-09T03:46:17;99019.97;;;19.33;100.00
21086;BME280;34247;50.064;19.970;2022-09-09T03:47:23;99027.56;;;19.29;100.00
21086;BME280;34247;50.064;19.970;2022-09-09T03:48:27;99027.03;;;19.34;100.00
21086;BME280;34247;50.064;19.970;2022-09-09T03:49:31;99026.53;;;19.30;100.00
21086;BME280;34247;50.064;19.970;2022-09-09T03:50:37;99042.34;;;19.33;100.00
21086;BME280;34247;50.064;19.970;2022-09-09T03:51:41;99035.09;;;19.34;100.00
21086;BME280;34247;50.064;19.970;2022-09-09T03:52:45;99034.63;;;19.30;100.00
21086;BME280;34247;50.064;19.970;2022-09-09T03:54:18;99031.25;;;19.28;100.00
21086;BME280;34247;50.064;19.970;2022-09-09T03:55:21;99034.63;;;19.30;100.00
21086;BME280;34247;50.064;19.970;2022-09-09T03:56:25;99047.72;;;19.33;100.00
21086;BME280;34247;50.064;19.970;2022-09-09T03:57:29;99029.56;;;19.27;100.00
21086;BME280;34247;50.064;19.970;2022-09-09T03:58:35;99043.19;;;19.34;100.00
21086;BME280;34247;50.064;19.970;2022-09-09T03:59:39;99032.09;;;19.28;100.00
21086;BME280;34247;50.064;19.970;2022-09-09T04:00:43;99037.78;;;19.34;100.00
21086;BME280;34247;50.064;19.970;2022-09-09T04:01:48;99032.75;;;19.31;100.00
21086;BME280;34247;50.064;19.970;2022-09-09T04:02:52;99040.00;;;19.38;100.00
21086;BME280;34247;50.064;19.970;2022-09-09T04:03:57;99033.28;;;19.34;100.00
21086;BME280;34247;50.064;19.970;2022-09-09T04:05:01;99042.88;;;19.37;100.00
21086;BME280;34247;50.064;19.970;2022-09-09T04:06:07;99054.81;;;19.42;100.00
21086;BME280;34247;50.064;19.970;2022-09-09T04:07:12;99042.03;;;19.36;100.00
21086;BME280;34247;50.064;19.970;2022-09-09T04:08:16;99047.75;;;19.41;100.00
21086;BME280;34247;50.064;19.970;2022-09-09T04:09:22;99039.66;;;19.33;100.00
21086;BME280;34247;50.064;19.970;2022-09-09T04:10:25;99040.50;;;19.34;100.00
21086;BME280;34247;50.064;19.970;2022-09-09T04:11:55;99034.25;;;19.33;100.00
21086;BME280;34247;50.064;19.970;2022-09-09T04:12:58;99044.38;;;19.39;100.00
21086;BME280;34247;50.064;19.970;2022-09-09T04:14:03;99042.53;;;19.40;100.00
21086;BME280;34247;50.064;19.970;2022-09-09T04:15:09;99037.31;;;19.38;100.00
21086;BME280;34247;50.064;19.970;2022-09-09T04:16:14;99038.16;;;19.39;100.00
21086;BME280;34247;50.064;19.970;2022-09-09T04:17:18;99030.41;;;19.36;100.00
21086;BME280;34247;50.064;19.970;2022-09-09T04:18:41;99041.84;;;19.38;100.00
21086;BME280;34247;50.064;19.970;2022-09-09T04:19:46;99053.63;;;19.37;100.00
21086;BME280;34247;50.064;19.970;2022-09-09T04:20:51;99054.47;;;19.37;100.00
21086;BME280;34247;50.064;19.970;2022-09-09T04:21:56;99055.31;;;19.38;100.00
21086;BME280;34247;50.064;19.970;2022-09-09T04:23:09;99049.94;;;19.38;100.00
21086;BME280;34247;50.064;19.970;2022-09-09T04:24:14;99050.75;;;19.38;100.00
21086;BME280;34247;50.064;19.970;2022-09-09T04:25:21;99053.63;;;19.37;100.00
21086;BME280;34247;50.064;19.970;2022-09-09T04:26:24;99044.72;;;19.36;100.00
21086;BME280;34247;50.064;19.970;2022-09-09T04:27:30;99047.91;;;19.40;100.00
21086;BME280;34247;50.064;19.970;2022-09-09T04:28:37;99044.38;;;19.39;100.00
21086;BME280;34247;50.064;19.970;2022-09-09T04:29:41;99040.00;;;19.38;100.00
21086;BME280;34247;50.064;19.970;2022-09-09T04:30:45;99036.97;;;19.33;100.00
21086;BME280;34247;50.064;19.970;2022-09-09T04:31:49;99037.66;;;19.35;100.00
21086;BME280;34247;50.064;19.970;2022-09-09T04:33:13;99043.69;;;19.37;100.00
21086;BME280;34247;50.064;19.970;2022-09-09T04:34:17;99046.03;;;19.32;100.00
21086;BME280;34247;50.064;19.970;2022-09-09T04:35:21;99028.72;;;19.26;100.00
21086;BME280;34247;50.064;19.970;2022-09-09T04:36:24;99035.09;;;19.25;100.00
21086;BME280;34247;50.064;19.970;2022-09-09T04:37:28;99031.56;;;19.25;100.00
21086;BME280;34247;50.064;19.970;2022-09-09T04:38:31;99044.53;;;19.29;100.00
21086;BME280;34247;50.064;19.970;2022-09-09T04:39:35;99048.25;;;19.37;100.00
21086;BME280;34247;50.064;19.970;2022-09-09T04:40:42;99021.66;;;19.25;100.00
21086;BME280;34247;50.064;19.970;2022-09-09T04:41:46;99049.44;;;19.34;100.00
21086;BME280;34247;50.064;19.970;2022-09-09T04:42:50;99042.03;;;19.36;100.00
21086;BME280;34247;50.064;19.970;2022-09-09T04:43:54;99031.94;;;19.30;100.00
21086;BME280;34247;50.064;19.970;2022-09-09T04:44:58;99042.69;;;19.38;100.00
21086;BME280;34247;50.064;19.970;2022-09-09T04:46:01;99034.97;;;19.35;100.00
21086;BME280;34247;50.064;19.970;2022-09-09T04:47:06;99034.44;;;19.32;100.00
21086;BME280;34247;50.064;19.970;2022-09-09T04:48:09;99039.00;;;19.39;100.00
21086;BME280;34247;50.064;19.970;2022-09-09T04:49:13;99042.38;;;19.41;100.00
21086;BME280;34247;50.064;19.970;2022-09-09T04:50:18;99034.78;;;19.37;100.00
21086;BME280;34247;50.064;19.970;2022-09-09T04:51:22;99038.81;;;19.41;100.00
21086;BME280;34247;50.064;19.970;2022-09-09T04:52:39;99041.38;;;19.42;100.00
21086;BME280;34247;50.064;19.970;2022-09-09T04:53:44;99040.34;;;19.43;100.00
21086;BME280;34247;50.064;19.970;2022-09-09T04:54:50;99048.06;;;19.46;100.00
21086;BME280;34247;50.064;19.970;2022-09-09T04:56:11;99029.91;;;19.40;100.00
21086;BME280;34247;50.064;19.970;2022-09-09T04:57:15;99043.41;;;19.48;100.00
21086;BME280;34247;50.064;19.970;2022-09-09T04:58:21;99043.53;;;19.47;100.00
21086;BME280;34247;50.064;19.970;2022-09-09T04:59:35;99037.13;;;19.48;100.00
21086;BME280;34247;50.064;19.970;2022-09-09T05:00:39;99050.09;;;19.52;100.00
21086;BME280;34247;50.064;19.970;2022-09-09T05:01:43;99047.41;;;19.52;100.00
21086;BME280;34247;50.064;19.970;2022-09-09T05:02:46;99040.69;;;19.48;100.00
21086;BME280;34247;50.064;19.970;2022-09-09T05:03:51;99041.00;;;19.53;100.00
21086;BME280;34247;50.064;19.970;2022-09-09T05:04:58;99039.03;;;19.55;100.00
21086;BME280;34247;50.064;19.970;2022-09-09T05:06:29;99033.97;;;19.52;100.00
21086;BME280;34247;50.064;19.970;2022-09-09T05:07:46;99037.16;;;19.56;100.00
21086;BME280;34247;50.064;19.970;2022-09-09T05:08:51;99043.25;;;19.58;100.00
21086;BME280;34247;50.064;19.970;2022-09-09T05:09:55;99052.16;;;19.59;100.00
21086;BME280;34247;50.064;19.970;2022-09-09T05:10:58;99047.78;;;19.58;100.00
21086;BME280;34247;50.064;19.970;2022-09-09T05:12:03;99045.38;;;19.54;100.00
21086;BME280;34247;50.064;19.970;2022-09-09T05:13:08;99057.56;;;19.59;100.00
21086;BME280;34247;50.064;19.970;2022-09-09T05:14:11;99060.25;;;19.59;100.00
21086;BME280;34247;50.064;19.970;2022-09-09T05:15:15;99059.41;;;19.58;100.00
21086;BME280;34247;50.064;19.970;2022-09-09T05:16:20;99055.88;;;19.58;100.00
21086;BME280;34247;50.064;19.970;2022-09-09T05:17:24;99049.31;;;19.60;100.00
21086;BME280;34247;50.064;19.970;2022-09-09T05:18:28;99057.19;;;19.62;100.00
21086;BME280;34247;50.064;19.970;2022-09-09T05:19:32;99050.31;;;19.59;100.00
21086;BME280;34247;50.064;19.970;2022-09-09T05:20:51;99060.72;;;19.62;100.00
21086;BME280;34247;50.064;19.970;2022-09-09T05:21:55;99063.28;;;19.64;100.00
21086;BME280;34247;50.064;19.970;2022-09-09T05:22:58;99060.59;;;19.64;100.00
21086;BME280;34247;50.064;19.970;2022-09-09T05:24:02;99050.47;;;19.58;100.00
21086;BME280;34247;50.064;19.970;2022-09-09T05:25:06;99046.09;;;19.56;100.00
21086;BME280;34247;50.064;19.970;2022-09-09T05:26:18;99052.50;;;19.64;100.00
21086;BME280;34247;50.064;19.970;2022-09-09T05:27:22;99057.72;;;19.65;100.00
21086;BME280;34247;50.064;19.970;2022-09-09T05:28:26;99041.41;;;19.59;100.00
21086;BME280;34247;50.064;19.970;2022-09-09T05:29:30;99055.38;;;19.70;100.00
21086;BME280;34247;50.064;19.970;2022-09-09T05:30:36;99056.22;;;19.71;100.00
21086;BME280;34247;50.064;19.970;2022-09-09T05:31:40;99057.72;;;19.65;100.00
21086;BME280;34247;50.064;19.970;2022-09-09T05:32:45;99062.75;;;19.68;100.00
21086;BME280;34247;50.064;19.970;2022-09-09T05:33:48;99063.94;;;19.66;100.00
21086;BME280;34247;50.064;19.970;2022-09-09T05:34:55;99050.13;;;19.61;100.00
21086;BME280;34247;50.064;19.970;2022-09-09T05:36:07;99066.28;;;19.69;100.00
21086;BME280;34247;50.064;19.970;2022-09-09T05:37:11;99066.28;;;19.69;100.00
21086;BME280;34247;50.064;19.970;2022-09-09T05:38:15;99068.84;;;19.70;100.00
21086;BME280;34247;50.064;19.970;2022-09-09T05:39:19;99053.19;;;19.66;100.00
21086;BME280;34247;50.064;19.970;2022-09-09T05:40:22;99060.25;;;19.67;100.00
21086;BME280;34247;50.064;19.970;2022-09-09T05:41:26;99063.94;;;19.66;100.00
21086;BME280;34247;50.064;19.970;2022-09-09T05:42:32;99065.28;;;19.70;100.00
21086;BME280;34247;50.064;19.970;2022-09-09T05:43:35;99057.56;;;19.67;100.00
21086;BME280;34247;50.064;19.970;2022-09-09T05:44:41;99068.66;;;19.72;100.00
21086;BME280;34247;50.064;19.970;2022-09-09T05:46:09;99069.50;;;19.72;100.00
21086;BME280;34247;50.064;19.970;2022-09-09T05:47:13;99071.34;;;19.72;100.00
21086;BME280;34247;50.064;19.970;2022-09-09T05:48:16;99050.66;;;19.64;100.00
21086;BME280;34247;50.064;19.970;2022-09-09T05:49:20;99056.72;;;19.66;100.00
21086;BME280;34247;50.064;19.970;2022-09-09T05:50:25;99064.28;;;19.71;100.00
21086;BME280;34247;50.064;19.970;2022-09-09T05:51:34;99060.59;;;19.72;100.00
21086;BME280;34247;50.064;19.970;2022-09-09T05:52:38;99080.94;;;19.82;100.00
21086;BME280;34247;50.064;19.970;2022-09-09T05:53:43;99064.94;;;19.81;100.00
21086;BME280;34247;50.064;19.970;2022-09-09T05:54:47;99077.75;;;19.95;100.00
21086;BME280;34247;50.064;19.970;2022-09-09T05:56:08;99071.69;;;20.01;100.00
21086;BME280;34247;50.064;19.970;2022-09-09T05:57:13;99078.22;;;20.15;100.00
21086;BME280;34247;50.064;19.970;2022-09-09T05:58:18;99060.22;;;20.16;100.00
21086;BME280;34247;50.064;19.970;2022-09-09T05:59:21;99067.06;;;20.26;100.00
21086;BME280;34247;50.064;19.970;2022-09-09T06:00:27;99065.56;;;20.32;100.00
21086;BME280;34247;50.064;19.970;2022-09-09T06:01:34;99072.97;;;20.46;99.63
21086;BME280;34247;50.064;19.970;2022-09-09T06:02:38;99074.63;;;20.47;98.99
21086;BME280;34247;50.064;19.970;2022-09-09T06:03:45;99082.00;;;20.61;98.85
21086;BME280;34247;50.064;19.970;2022-09-09T06:04:49;99079.47;;;20.68;98.44
21086;BME280;34247;50.064;19.970;2022-09-09T06:06:01;99077.75;;;20.75;97.86
21086;BME280;34247;50.064;19.970;2022-09-09T06:07:05;99078.38;;;20.85;97.02
21086;BME280;34247;50.064;19.970;2022-09-09T06:08:09;99069.06;;;20.96;96.37
21086;BME280;34247;50.064;19.970;2022-09-09T06:09:13;99088.88;;;21.11;95.64
21086;BME280;34247;50.064;19.970;2022-09-09T06:10:19;99079.72;;;21.20;95.13
21086;BME280;34247;50.064;19.970;2022-09-09T06:11:26;99092.41;;;21.43;93.94
21086;BME280;34247;50.064;19.970;2022-09-09T06:12:30;99083.09;;;21.54;93.37
21086;BME280;34247;50.064;19.970;2022-09-09T06:13:34;99088.84;;;21.73;92.26
21086;BME280;34247;50.064;19.970;2022-09-09T06:14:38;99099.03;;;21.86;90.95
21086;BME280;34247;50.064;19.970;2022-09-09T06:15:51;99106.34;;;22.00;90.05
21086;BME280;34247;50.064;19.970;2022-09-09T06:16:55;99088.56;;;22.06;88.31
21086;BME280;34247;50.064;19.970;2022-09-09T06:17:59;99091.50;;;22.19;87.89
21086;BME280;34247;50.064;19.970;2022-09-09T06:19:11;99085.38;;;22.40;86.30
21086;BME280;34247;50.064;19.970;2022-09-09T06:20:16;99081.66;;;22.56;85.72
21086;BME280;34247;50.064;19.970;2022-09-09T06:21:26;99099.31;;;22.81;84.28
21086;BME280;34247;50.064;19.970;2022-09-09T06:22:30;99089.97;;;22.99;82.91
21086;BME280;34247;50.064;19.970;2022-09-09T06:23:34;99084.34;;;23.15;80.69
21086;BME280;34247;50.064;19.970;2022-09-09T06:24:43;99086.16;;;23.29;79.79
21086;BME280;34247;50.064;19.970;2022-09-09T06:25:48;99089.22;;;23.41;78.50
21086;BME280;34247;50.064;19.970;2022-09-09T06:26:52;99087.66;;;23.53;78.46
21086;BME280;34247;50.064;19.970;2022-09-09T06:27:57;99100.41;;;23.74;76.76
21086;BME280;34247;50.064;19.970;2022-09-09T06:29:02;99110.47;;;23.80;76.13
21086;BME280;34247;50.064;19.970;2022-09-09T06:30:08;99094.34;;;23.93;76.21
21086;BME280;34247;50.064;19.970;2022-09-09T06:31:26;99083.00;;;24.11;75.67
21086;BME280;34247;50.064;19.970;2022-09-09T06:32:34;99074.59;;;24.28;73.55
21086;BME280;34247;50.064;19.970;2022-09-09T06:33:41;99095.28;;;24.57;73.21